Time;durP1;ratioP1;P1;durP2;ratioP2;P2;SDS_P1;SDS_P2;PMS_P1;PMS_P2;Temp;Humidity;BMP_temperature;BMP_pressure;BME280_temperature;BME280_humidity;BME280_pressure;Samples;Min_cycle;Max_cycle;Signal;HPM_P1;HPM_P2
2023/02/13 00:01:11;;;;;;;9.10;2.00;;;;;;;-5.79;100.00;102074.89;106897;1285;58290;-75
2023/02/13 00:03:37;;;;;;;8.80;1.90;;;;;;;-5.81;100.00;102071.02;106883;1285;58580;-75
2023/02/13 00:06:02;;;;;;;5.10;1.80;;;;;;;-5.86;100.00;102066.29;106867;1285;60074;-76
2023/02/13 00:08:28;;;;;;;5.50;2.10;;;;;;;-5.90;100.00;102070.45;106907;1285;58224;-76
2023/02/13 00:10:53;;;;;;;7.00;2.00;;;;;;;-5.94;100.00;102071.13;106879;1285;58262;-76
2023/02/13 00:13:19;;;;;;;7.50;1.70;;;;;;;-5.97;100.00;102069.80;106868;1285;58312;-75
2023/02/13 00:15:44;;;;;;;4.90;1.80;;;;;;;-5.97;100.00;102067.86;106900;1285;58215;-75
2023/02/13 00:18:10;;;;;;;5.10;1.80;;;;;;;-5.98;100.00;102069.31;106892;1284;59639;-76
2023/02/13 00:20:35;;;;;;;7.50;2.10;;;;;;;-6.00;100.00;102074.05;106886;1285;58255;-76
2023/02/13 00:23:01;;;;;;;7.70;2.40;;;;;;;-6.03;100.00;102072.02;106877;1285;58497;-76
2023/02/13 00:25:27;;;;;;;8.40;1.90;;;;;;;-6.06;100.00;102080.05;106890;1285;58320;-76
2023/02/13 00:27:53;;;;;;;7.50;2.20;;;;;;;-6.08;100.00;102078.86;106945;1284;58526;-76
2023/02/13 00:30:20;;;;;;;6.50;2.10;;;;;;;-6.12;100.00;102081.42;106858;1285;73477;-76
2023/02/13 00:32:45;;;;;;;9.40;2.20;;;;;;;-6.17;100.00;102088.27;106446;1286;73452;-76
2023/02/13 00:35:11;;;;;;;6.40;2.30;;;;;;;-6.19;100.00;102088.58;106831;1285;58329;-75
2023/02/13 00:37:36;;;;;;;6.10;1.90;;;;;;;-6.20;100.00;102083.40;106763;1286;58276;-76
2023/02/13 00:40:02;;;;;;;8.10;2.30;;;;;;;-6.21;100.00;102084.85;106918;1285;58655;-76
2023/02/13 00:42:28;;;;;;;9.10;2.40;;;;;;;-6.21;100.00;102086.98;106903;1285;58723;-76
2023/02/13 00:44:53;;;;;;;5.50;2.10;;;;;;;-6.26;100.00;102088.17;106833;1285;62912;-76
2023/02/13 00:47:19;;;;;;;7.00;2.00;;;;;;;-6.27;100.00;102086.53;106873;1285;58273;-76
2023/02/13 00:49:45;;;;;;;6.70;2.20;;;;;;;-6.32;100.00;102089.16;106892;1285;58405;-76
2023/02/13 00:52:11;;;;;;;6.90;2.20;;;;;;;-6.35;100.00;102089.61;106863;1284;58240;-76
2023/02/13 00:54:36;;;;;;;7.90;2.20;;;;;;;-6.36;100.00;102087.73;106888;1285;58322;-76
2023/02/13 00:57:02;;;;;;;6.60;2.10;;;;;;;-6.38;100.00;102085.79;106905;1284;58685;-76
2023/02/13 00:59:28;;;;;;;8.30;2.30;;;;;;;-6.42;100.00;102083.60;106883;1285;74220;-76
2023/02/13 01:01:53;;;;;;;9.70;2.40;;;;;;;-6.45;100.00;102082.76;106899;1285;58453;-76
2023/02/13 01:04:19;;;;;;;5.70;2.20;;;;;;;-6.48;100.00;102077.02;106895;1285;58315;-76
2023/02/13 01:06:44;;;;;;;4.70;2.20;;;;;;;-6.50;100.00;102081.76;106899;1285;58287;-76
2023/02/13 01:09:10;;;;;;;6.00;2.20;;;;;;;-6.53;100.00;102079.70;106936;1285;58296;-76
2023/02/13 01:11:35;;;;;;;6.10;2.10;;;;;;;-6.57;100.00;102085.05;106896;1285;74277;-76
2023/02/13 01:14:01;;;;;;;4.00;2.10;;;;;;;-6.62;100.00;102086.98;106887;1284;58262;-75
2023/02/13 01:16:26;;;;;;;8.30;2.70;;;;;;;-6.66;100.00;102089.75;106854;1285;58466;-75
2023/02/13 01:18:52;;;;;;;9.20;2.40;;;;;;;-6.69;100.00;102089.20;106904;1285;58194;-75
2023/02/13 01:21:20;;;;;;;7.20;2.50;;;;;;;-6.72;100.00;102091.53;106951;1285;58258;-75
2023/02/13 01:23:46;;;;;;;7.50;2.20;;;;;;;-6.74;100.00;102093.23;106858;1285;72546;-76
2023/02/13 01:26:18;;;;;;;7.70;2.60;;;;;;;-6.76;100.00;102088.88;106911;1285;58486;-76
2023/02/13 01:28:43;;;;;;;8.10;2.80;;;;;;;-6.80;100.00;102088.84;106878;1285;61142;-75
2023/02/13 01:31:09;;;;;;;7.00;2.40;;;;;;;-6.81;100.00;102083.66;106893;1285;58370;-75
2023/02/13 01:33:34;;;;;;;4.90;2.10;;;;;;;-6.83;100.00;102083.45;106567;1286;58516;-75
2023/02/13 01:36:06;;;;;;;6.70;2.70;;;;;;;-6.86;100.00;102083.64;106845;1285;58198;-75
2023/02/13 01:38:31;;;;;;;8.90;2.90;;;;;;;-6.90;100.00;102086.02;106894;1284;62194;-75
2023/02/13 01:40:56;;;;;;;5.60;2.50;;;;;;;-6.94;100.00;102088.22;106961;1284;58264;-75
2023/02/13 01:43:23;;;;;;;11.10;2.60;;;;;;;-6.98;100.00;102084.13;106980;1285;58349;-75
2023/02/13 01:45:52;;;;;;;7.60;2.30;;;;;;;-7.01;100.00;102087.66;106938;1285;58238;-76
2023/02/13 01:48:22;;;;;;;7.50;2.60;;;;;;;-7.01;100.00;102090.30;106921;1284;73220;-75
2023/02/13 01:50:56;;;;;;;8.00;2.50;;;;;;;-7.01;100.00;102094.11;106952;1285;61749;-76
2023/02/13 01:53:47;;;;;;;8.50;2.50;;;;;;;-7.02;100.00;102096.16;106648;1284;61008;-76
2023/02/13 01:56:29;;;;;;;7.80;2.10;;;;;;;-7.06;100.00;102095.23;106220;1291;74710;-75
2023/02/13 01:58:59;;;;;;;7.20;2.30;;;;;;;-7.06;100.00;102098.69;106234;1291;74287;-75
2023/02/13 02:01:26;;;;;;;7.10;2.40;;;;;;;-7.08;100.00;102098.62;106131;1292;73436;-76
2023/02/13 02:03:59;;;;;;;7.10;2.60;;;;;;;-7.11;100.00;102100.96;106204;1291;62722;-75
2023/02/13 02:06:28;;;;;;;5.70;2.40;;;;;;;-7.15;100.00;102101.73;106210;1291;61120;-75
2023/02/13 02:08:56;;;;;;;6.70;2.00;;;;;;;-7.17;100.00;102103.64;106216;1291;73533;-75
2023/02/13 02:11:33;;;;;;;5.90;2.50;;;;;;;-7.18;100.00;102103.86;106205;1291;74281;-75
2023/02/13 02:14:00;;;;;;;7.80;2.60;;;;;;;-7.20;100.00;102106.30;106210;1291;73627;-75
2023/02/13 02:16:26;;;;;;;6.50;2.50;;;;;;;-7.22;100.00;102113.60;106165;1291;62568;-75
2023/02/13 02:18:51;;;;;;;8.00;2.60;;;;;;;-7.22;100.00;102119.91;105956;1291;58418;-75
2023/02/13 02:21:33;;;;;;;6.10;2.20;;;;;;;-7.22;100.00;102128.48;106248;1291;58307;-75
2023/02/13 02:24:23;;;;;;;8.30;2.20;;;;;;;-7.23;100.00;102129.05;106154;1291;72520;-75
2023/02/13 02:27:07;;;;;;;5.80;2.50;;;;;;;-7.24;100.00;102134.16;106219;1291;73457;-75
2023/02/13 02:29:54;;;;;;;4.80;2.10;;;;;;;-7.26;100.00;102136.74;106197;1291;62720;-75
2023/02/13 02:32:44;;;;;;;7.80;2.30;;;;;;;-7.25;100.00;102134.97;106245;1291;61137;-75
2023/02/13 02:35:28;;;;;;;6.90;2.60;;;;;;;-7.24;100.00;102133.31;106973;1285;74454;-75
2023/02/13 02:38:01;;;;;;;8.70;2.20;;;;;;;-7.26;100.00;102135.30;106966;1284;74326;-75
2023/02/13 02:40:26;;;;;;;;;;;;;;;-7.27;100.00;102136.14;106975;1284;72454;-76
2023/02/13 02:43:10;;;;;;;7.20;2.30;;;;;;;-7.30;100.00;102144.19;106972;1285;58266;-75
2023/02/13 02:46:09;;;;;;;6.50;2.50;;;;;;;-7.34;100.00;102145.98;106954;1284;61213;-75
2023/02/13 02:52:05;;;;;;;7.30;2.10;;;;;;;-7.42;100.00;102144.24;106944;1285;73365;-75
2023/02/13 03:06:09;;;;;;;;;;;;;;;-7.48;100.00;102142.06;106241;1291;61746;-75
2023/02/13 03:14:03;;;;;;;7.50;2.30;;;;;;;-7.50;100.00;102138.55;106216;1291;60156;-75
2023/02/13 03:22:27;;;;;;;5.10;2.00;;;;;;;-7.54;100.00;102147.21;106216;1291;71157;-75
2023/02/13 03:25:06;;;;;;;6.10;2.10;;;;;;;-7.53;100.00;102147.29;106179;1291;62881;-76
2023/02/13 03:30:33;;;;;;;7.30;2.30;;;;;;;-7.56;100.00;102153.60;106223;1286;71799;-75
2023/02/13 03:33:14;;;;;;;6.60;2.20;;;;;;;-7.58;100.00;102156.86;106955;1285;74258;-76
2023/02/13 03:38:54;;;;;;;8.10;2.30;;;;;;;-7.63;100.00;102164.73;106929;1284;61688;-76
2023/02/13 03:42:01;;;;;;;8.20;2.40;;;;;;;-7.65;100.00;102165.58;106941;1285;60783;-75
2023/02/13 03:44:33;;;;;;;9.20;2.20;;;;;;;-7.66;100.00;102171.02;107002;1285;73574;-75
2023/02/13 03:47:05;;;;;;;5.00;2.50;;;;;;;-7.68;100.00;102166.27;106956;1285;74356;-75
2023/02/13 03:52:51;;;;;;;8.90;2.80;;;;;;;-7.66;100.00;102166.17;106636;1285;60818;-75
2023/02/13 04:01:17;;;;;;;8.10;2.50;;;;;;;-7.72;100.00;102174.73;106236;1291;73626;-75
2023/02/13 04:03:49;;;;;;;6.90;2.50;;;;;;;-7.74;100.00;102179.55;106188;1291;72352;-75
2023/02/13 04:06:20;;;;;;;7.30;2.20;;;;;;;-7.72;100.00;102186.23;106064;1292;61940;-75
2023/02/13 04:08:46;;;;;;;7.30;2.70;;;;;;;-7.71;100.00;102185.31;106209;1291;61947;-75
2023/02/13 04:11:24;;;;;;;8.50;2.30;;;;;;;-7.73;100.00;102184.58;106233;1291;58589;-75
2023/02/13 04:13:56;;;;;;;10.40;2.30;;;;;;;-7.73;100.00;102185.14;106218;1291;74318;-75
2023/02/13 04:16:29;;;;;;;5.20;2.10;;;;;;;-7.75;100.00;102182.61;106248;1291;73325;-75
2023/02/13 04:18:55;;;;;;;8.70;2.20;;;;;;;-7.75;100.00;102181.77;106171;1291;61541;-75
2023/02/13 04:21:21;;;;;;;4.60;1.70;;;;;;;-7.73;100.00;102184.77;105863;1292;59673;-75
2023/02/13 04:23:47;;;;;;;5.50;2.10;;;;;;;-7.76;100.00;102191.52;106191;1291;58391;-74
2023/02/13 04:26:22;;;;;;;6.50;1.80;;;;;;;-7.77;100.00;102194.96;106268;1291;58765;-75
2023/02/13 04:28:47;;;;;;;10.90;2.40;;;;;;;-7.76;100.00;102193.33;106199;1291;73568;-75
2023/02/13 04:31:13;;;;;;;5.10;2.20;;;;;;;-7.76;100.00;102191.56;106257;1291;58276;-75
2023/02/13 04:33:38;;;;;;;6.90;1.90;;;;;;;-7.72;100.00;102193.61;106632;1284;58338;-75
2023/02/13 04:36:04;;;;;;;8.90;2.60;;;;;;;-7.70;100.00;102199.08;106975;1284;59176;-75
2023/02/13 04:38:30;;;;;;;5.90;2.00;;;;;;;-7.70;100.00;102194.00;107018;1284;58516;-75
2023/02/13 04:40:55;;;;;;;5.50;2.00;;;;;;;-7.69;100.00;102186.61;106924;1284;62983;-75
2023/02/13 04:43:21;;;;;;;6.30;2.00;;;;;;;-7.64;100.00;102181.68;106970;1284;58262;-75
2023/02/13 04:45:50;;;;;;;5.50;2.20;;;;;;;-7.58;100.00;102180.61;106637;1284;58439;-75
2023/02/13 04:48:16;;;;;;;5.80;2.50;;;;;;;-7.52;100.00;102174.42;106931;1284;74535;-75
2023/02/13 04:50:41;;;;;;;8.20;2.50;;;;;;;-7.41;100.00;102178.28;106931;1284;58324;-75
2023/02/13 04:53:07;;;;;;;6.40;2.00;;;;;;;-7.31;100.00;102184.38;106624;1286;58390;-75
2023/02/13 04:55:33;;;;;;;11.40;2.80;;;;;;;-7.23;100.00;102184.69;106992;1284;58540;-75
2023/02/13 04:57:58;;;;;;;13.10;2.70;;;;;;;-7.15;100.00;102191.65;107000;1285;58280;-75
2023/02/13 05:00:25;;;;;;;10.60;2.90;;;;;;;-7.08;100.00;102195.54;106966;1284;73419;-75
2023/02/13 05:02:51;;;;;;;8.00;2.60;;;;;;;-7.01;100.00;102199.63;106925;1284;61765;-75
2023/02/13 05:05:18;;;;;;;6.30;2.90;;;;;;;-6.93;100.00;102204.65;106949;1284;58489;-75
2023/02/13 05:07:43;;;;;;;9.10;2.70;;;;;;;-6.86;100.00;102208.07;106965;1284;58592;-75
2023/02/13 05:10:10;;;;;;;13.30;3.40;;;;;;;-6.79;100.00;102215.40;106977;1284;58286;-75
2023/02/13 05:12:36;;;;;;;11.40;4.20;;;;;;;-6.70;100.00;102208.84;106904;1284;58493;-75
2023/02/13 05:15:01;;;;;;;7.70;3.50;;;;;;;-6.61;100.00;102208.72;106932;1284;58540;-75
2023/02/13 05:17:27;;;;;;;11.40;3.80;;;;;;;-6.54;100.00;102212.92;106964;1284;58219;-75
2023/02/13 05:19:52;;;;;;;8.80;3.10;;;;;;;-6.44;100.00;102201.75;107004;1285;58412;-75
2023/02/13 05:25:02;;;;;;;9.50;3.80;;;;;;;-6.22;100.00;102205.92;106733;1284;61932;-75
2023/02/13 05:27:28;;;;;;;9.60;3.40;;;;;;;-6.14;100.00;102212.89;106937;1284;58666;-75
2023/02/13 05:29:53;;;;;;;11.90;4.20;;;;;;;-6.06;100.00;102217.08;106957;1284;58212;-75
2023/02/13 05:32:19;;;;;;;13.60;3.90;;;;;;;-5.93;100.00;102219.41;106704;1286;58455;-75
2023/02/13 05:34:44;;;;;;;13.20;4.20;;;;;;;-5.71;100.00;102216.05;106943;1285;58282;-75
2023/02/13 05:37:10;;;;;;;11.30;4.20;;;;;;;-5.45;100.00;102218.48;106928;1285;60500;-75
2023/02/13 05:39:35;;;;;;;10.50;3.90;;;;;;;-5.24;100.00;102211.61;106933;1284;58525;-75
2023/02/13 05:42:03;;;;;;;9.80;4.20;;;;;;;-5.14;100.00;102210.71;106615;1285;58688;-76
2023/02/13 05:44:29;;;;;;;13.10;4.70;;;;;;;-5.09;100.00;102209.30;107006;1284;58279;-75
2023/02/13 05:46:55;;;;;;;16.50;5.30;;;;;;;-5.03;100.00;102218.11;106937;1285;58274;-75
2023/02/13 05:49:21;;;;;;;18.70;5.10;;;;;;;-4.91;100.00;102217.54;106633;1284;58386;-75
2023/02/13 05:51:47;;;;;;;15.60;4.90;;;;;;;-4.79;100.00;102218.68;106998;1284;58214;-75
2023/02/13 05:54:13;;;;;;;14.70;4.40;;;;;;;-4.61;100.00;102224.11;106966;1284;58307;-75
2023/02/13 05:56:39;;;;;;;14.00;4.40;;;;;;;-4.43;100.00;102223.23;106925;1284;58241;-75
2023/02/13 05:59:05;;;;;;;12.50;4.30;;;;;;;-4.23;100.00;102224.64;106639;1285;58815;-75
2023/02/13 06:01:31;;;;;;;16.30;4.00;;;;;;;-4.00;100.00;102231.40;106547;1284;74604;-76
2023/02/13 06:03:56;;;;;;;14.30;4.10;;;;;;;-3.72;100.00;102226.48;106983;1285;58204;-75
2023/02/13 06:06:22;;;;;;;15.00;4.50;;;;;;;-3.38;100.00;102226.30;106772;1285;58429;-75
2023/02/13 06:08:47;;;;;;;11.90;4.10;;;;;;;-3.04;100.00;102221.48;106964;1284;58190;-75
2023/02/13 06:11:13;;;;;;;12.20;4.20;;;;;;;-2.67;100.00;102226.46;106665;1286;58680;-75
2023/02/13 06:13:39;;;;;;;12.70;3.80;;;;;;;-2.27;100.00;102230.69;106958;1285;73243;-75
2023/02/13 06:16:10;;;;;;;13.60;3.80;;;;;;;-1.92;100.00;102230.95;106969;1284;58401;-76
2023/02/13 06:18:39;;;;;;;11.20;4.00;;;;;;;-1.58;100.00;102233.50;106967;1284;61817;-76
2023/02/13 06:21:06;;;;;;;10.00;3.40;;;;;;;-0.99;100.00;102228.45;107028;1285;60981;-77
2023/02/13 06:23:31;;;;;;;10.40;3.60;;;;;;;-0.34;100.00;102219.83;106944;1284;73675;-74
2023/02/13 06:26:02;;;;;;;11.70;3.00;;;;;;;0.40;100.00;102214.84;107001;1285;58419;-74
2023/02/13 06:28:28;;;;;;;11.10;4.20;;;;;;;1.00;100.00;102209.48;106960;1284;71713;-74
2023/02/13 06:30:53;;;;;;;18.90;4.60;;;;;;;1.62;99.88;102205.89;106995;1285;58260;-74
2023/02/13 06:33:19;;;;;;;17.20;5.20;;;;;;;2.07;96.74;102208.05;107014;1285;58407;-74
2023/02/13 06:35:44;;;;;;;16.90;4.90;;;;;;;2.46;91.67;102210.98;107015;1285;58598;-74
2023/02/13 06:38:09;;;;;;;15.30;4.70;;;;;;;2.50;82.26;102210.41;106901;1285;58339;-74
2023/02/13 06:40:35;;;;;;;21.70;5.60;;;;;;;2.76;82.31;102209.50;107020;1284;58490;-74
2023/02/13 06:43:01;;;;;;;13.40;4.90;;;;;;;3.14;80.15;102203.54;107004;1284;58290;-75
2023/02/13 06:45:26;;;;;;;14.60;5.20;;;;;;;3.57;76.80;102202.65;106996;1284;58384;-75
2023/02/13 06:47:52;;;;;;;11.30;4.40;;;;;;;4.11;74.19;102198.40;106870;1285;58293;-75
2023/02/13 06:50:17;;;;;;;14.20;4.70;;;;;;;5.19;74.77;102196.50;106666;1284;58328;-75
2023/02/13 06:52:48;;;;;;;11.50;4.50;;;;;;;6.74;67.32;102190.76;106743;1284;59212;-76
2023/02/13 06:55:14;;;;;;;12.10;4.50;;;;;;;8.05;59.32;102193.98;107018;1284;73455;-76
2023/02/13 06:57:40;;;;;;;12.90;5.20;;;;;;;9.13;55.60;102190.79;106859;1285;58268;-75
2023/02/13 07:00:07;;;;;;;18.10;5.50;;;;;;;9.79;47.77;102182.60;107037;1284;58274;-76
2023/02/13 07:02:32;;;;;;;16.50;5.60;;;;;;;9.95;46.68;102183.31;106900;1285;58241;-76
2023/02/13 07:04:58;;;;;;;13.40;5.00;;;;;;;10.15;46.21;102181.02;107029;1285;58243;-76
2023/02/13 07:07:24;;;;;;;15.20;5.30;;;;;;;10.59;46.05;102184.31;107015;1285;58330;-76
2023/02/13 07:09:50;;;;;;;10.10;4.40;;;;;;;11.32;44.78;102180.67;107005;1284;58380;-76
2023/02/13 07:12:15;;;;;;;11.20;4.60;;;;;;;12.36;43.36;102178.77;106885;1285;58329;-76
2023/02/13 07:14:41;;;;;;;12.70;4.60;;;;;;;13.66;41.92;102177.40;106969;1284;59967;-76
2023/02/13 07:17:07;;;;;;;10.10;4.70;;;;;;;14.65;39.05;102172.73;106980;1285;58338;-76
2023/02/13 07:19:32;;;;;;;12.50;5.00;;;;;;;15.45;37.82;102179.60;107018;1284;58308;-77
2023/02/13 07:21:58;;;;;;;9.00;4.30;;;;;;;16.00;35.45;102178.11;106951;1285;58569;-77
2023/02/13 07:24:23;;;;;;;9.00;4.70;;;;;;;16.43;35.03;102177.00;106876;1285;58226;-77
2023/02/13 07:26:49;;;;;;;10.60;4.70;;;;;;;16.27;33.21;102175.02;106931;1285;73750;-76
2023/02/13 07:29:15;;;;;;;13.00;5.20;;;;;;;15.27;33.61;102177.41;106978;1285;58262;-76
2023/02/13 07:31:40;;;;;;;11.90;5.10;;;;;;;15.35;33.67;102178.34;106643;1284;58462;-77
2023/02/13 07:34:06;;;;;;;9.90;4.40;;;;;;;15.99;34.00;102174.98;106960;1285;58299;-77
2023/02/13 07:36:32;;;;;;;14.10;5.10;;;;;;;16.72;33.43;102172.92;106848;1284;58270;-77
2023/02/13 07:38:57;;;;;;;9.10;4.50;;;;;;;17.18;32.53;102171.75;107034;1285;58447;-76
2023/02/13 07:41:26;;;;;;;10.40;4.70;;;;;;;16.80;30.63;102168.95;106837;1285;58662;-76
2023/02/13 07:43:52;;;;;;;11.00;4.60;;;;;;;16.34;30.38;102169.09;106982;1284;60457;-76
2023/02/13 07:46:18;;;;;;;10.90;5.00;;;;;;;15.93;30.77;102169.38;106661;1285;58460;-76
2023/02/13 07:48:43;;;;;;;10.90;4.70;;;;;;;15.74;30.67;102167.52;106663;1284;58708;-76
2023/02/13 07:51:09;;;;;;;7.60;4.10;;;;;;;15.74;31.24;102171.14;106990;1285;58267;-77
2023/02/13 07:53:35;;;;;;;12.60;4.60;;;;;;;15.38;31.27;102174.85;106969;1284;58603;-77
2023/02/13 07:56:10;;;;;;;9.30;4.00;;;;;;;15.78;31.87;102171.99;106671;1284;59276;-77
2023/02/13 07:58:38;;;;;;;9.90;4.20;;;;;;;16.76;30.60;102169.30;106975;1285;73659;-77
2023/02/13 08:01:06;;;;;;;8.70;3.90;;;;;;;17.03;29.56;102172.92;106406;1285;73304;-77
2023/02/13 08:03:32;;;;;;;12.70;3.70;;;;;;;16.72;30.00;102168.30;106731;1284;72544;-77
2023/02/13 08:05:58;;;;;;;6.20;3.60;;;;;;;16.21;29.81;102166.75;106994;1284;58228;-76
2023/02/13 08:08:23;;;;;;;5.60;3.30;;;;;;;15.61;30.28;102168.33;107011;1286;58576;-77
2023/02/13 08:13:36;;;;;;;9.70;4.30;;;;;;;14.77;31.22;102174.39;107011;1285;72146;-79
2023/02/13 08:16:01;;;;;;;10.70;3.20;;;;;;;14.89;31.18;102174.46;106734;1285;73512;-79
2023/02/13 08:18:27;;;;;;;9.00;3.40;;;;;;;14.59;31.10;102171.52;106999;1285;58282;-79
2023/02/13 08:20:52;;;;;;;7.70;3.20;;;;;;;13.58;31.11;102178.63;106994;1285;58303;-78
2023/02/13 08:23:18;;;;;;;7.20;2.90;;;;;;;12.62;32.10;102175.89;106676;1286;58625;-78
2023/02/13 08:25:44;;;;;;;10.60;3.30;;;;;;;11.77;32.75;102170.00;106874;1284;58290;-78
2023/02/13 08:28:10;;;;;;;9.20;4.00;;;;;;;11.20;34.33;102169.60;106742;1285;58389;-78
2023/02/13 08:30:35;;;;;;;10.40;3.20;;;;;;;11.90;34.56;102168.11;106931;1285;58274;-79
2023/02/13 08:33:01;;;;;;;8.40;3.90;;;;;;;12.87;34.95;102168.95;106860;1285;58285;-79
2023/02/13 08:35:28;;;;;;;6.80;3.10;;;;;;;14.07;33.45;102166.53;106970;1285;58228;-78
2023/02/13 08:37:54;;;;;;;8.10;3.80;;;;;;;14.58;32.78;102161.10;106934;1285;58943;-77
2023/02/13 08:40:20;;;;;;;10.00;3.40;;;;;;;15.06;32.49;102154.12;106939;1284;58074;-77
2023/02/13 08:42:46;;;;;;;6.70;3.10;;;;;;;15.34;31.65;102157.91;107013;1284;58241;-76
2023/02/13 08:45:11;;;;;;;5.30;3.10;;;;;;;15.58;31.44;102152.09;106993;1285;58254;-77
2023/02/13 08:47:38;;;;;;;10.10;3.40;;;;;;;15.81;30.25;102149.79;107011;1285;72704;-77
2023/02/13 08:50:05;;;;;;;8.00;3.30;;;;;;;14.47;30.34;102156.45;106987;1285;61193;-76
2023/02/13 08:52:30;;;;;;;7.70;3.10;;;;;;;12.93;31.51;102161.73;106693;1285;58344;-76
2023/02/13 08:54:56;;;;;;;8.00;3.20;;;;;;;11.86;32.65;102163.04;106849;1284;58285;-76
2023/02/13 08:57:22;;;;;;;8.30;3.30;;;;;;;10.73;33.65;102161.30;107003;1284;58666;-75
2023/02/13 08:59:47;;;;;;;9.20;3.60;;;;;;;9.64;34.95;102156.19;106966;1284;58499;-76
2023/02/13 09:02:13;;;;;;;11.90;3.50;;;;;;;8.70;36.41;102154.25;106981;1284;58142;-75
2023/02/13 09:04:40;;;;;;;6.00;3.10;;;;;;;8.01;37.27;102148.89;106694;1288;59116;-75
2023/02/13 09:07:05;;;;;;;7.20;3.30;;;;;;;7.51;38.22;102151.20;106663;1285;74460;-74
2023/02/13 09:09:31;;;;;;;8.40;3.00;;;;;;;7.15;39.50;102151.99;106926;1285;58189;-78
2023/02/13 09:11:56;;;;;;;6.60;2.80;;;;;;;6.95;39.64;102145.23;106988;1284;58282;-74
2023/02/13 09:14:25;;;;;;;12.60;3.70;;;;;;;6.67;40.81;102139.50;106777;1286;58368;-75
2023/02/13 09:16:51;;;;;;;8.70;2.80;;;;;;;6.35;41.67;102133.08;106978;1285;58260;-74
2023/02/13 09:19:17;;;;;;;5.90;2.70;;;;;;;5.95;41.84;102128.58;106977;1286;58346;-76
2023/02/13 09:21:42;;;;;;;9.80;2.80;;;;;;;5.48;42.73;102123.70;106777;1285;58681;-75
2023/02/13 09:24:09;;;;;;;11.40;2.90;;;;;;;5.28;43.48;102122.98;106961;1285;58239;-76
2023/02/13 09:26:35;;;;;;;7.70;2.80;;;;;;;5.16;43.59;102123.35;106990;1285;58250;-76
2023/02/13 09:29:00;;;;;;;7.10;2.90;;;;;;;5.05;44.22;102121.79;106989;1285;58177;-75
2023/02/13 09:31:26;;;;;;;8.30;2.60;;;;;;;4.99;45.16;102123.35;106733;1286;58344;-76
2023/02/13 09:33:52;;;;;;;6.90;2.90;;;;;;;4.96;45.54;102118.79;106953;1285;58223;-76
2023/02/13 09:36:20;;;;;;;10.90;3.50;;;;;;;5.16;45.36;102112.63;106700;1284;58776;-76
2023/02/13 09:38:50;;;;;;;8.70;2.90;;;;;;;5.15;45.62;102112.09;106777;1285;73564;-75
2023/02/13 09:41:24;;;;;;;8.30;2.80;;;;;;;5.14;46.31;102100.40;106964;1285;72442;-75
2023/02/13 09:44:11;;;;;;;9.90;2.60;;;;;;;5.38;46.92;102098.22;106967;1285;72625;-75
2023/02/13 09:46:39;;;;;;;7.60;2.70;;;;;;;5.71;46.01;102096.02;106944;1285;59397;-75
2023/02/13 09:49:12;;;;;;;6.60;3.00;;;;;;;5.80;46.18;102092.70;106958;1285;61082;-75
2023/02/13 09:51:37;;;;;;;9.10;3.30;;;;;;;5.97;46.03;102090.55;106645;1285;72624;-75
2023/02/13 09:54:06;;;;;;;7.40;2.10;;;;;;;5.91;45.86;102083.42;107004;1284;58680;-77
2023/02/13 09:56:37;;;;;;;11.40;2.80;;;;;;;5.90;45.93;102077.79;106973;1285;73268;-78
2023/02/13 09:59:12;;;;;;;11.80;2.70;;;;;;;5.88;46.12;102077.36;106990;1284;59233;-77
2023/02/13 10:01:42;;;;;;;6.90;2.40;;;;;;;5.82;46.02;102077.29;106955;1285;60191;-76
2023/02/13 10:04:40;;;;;;;5.60;2.60;;;;;;;5.67;46.02;102071.21;106985;1285;74625;-77
2023/02/13 10:07:09;;;;;;;15.10;2.70;;;;;;;5.43;46.30;102072.73;106944;1285;74355;-77
2023/02/13 10:09:52;;;;;;;7.40;2.60;;;;;;;5.24;47.07;102071.77;106984;1284;72693;-76
2023/02/13 10:12:53;;;;;;;8.90;3.00;;;;;;;5.21;47.71;102067.97;106926;1284;59483;-76
2023/02/13 10:15:50;;;;;;;7.80;3.00;;;;;;;5.30;48.47;102067.83;106282;1290;58942;-80
2023/02/13 10:18:21;;;;;;;8.40;3.40;;;;;;;5.35;48.99;102071.83;106300;1290;73681;-79
2023/02/13 10:20:55;;;;;;;8.60;3.20;;;;;;;5.31;48.66;102065.83;106207;1290;74364;-79
2023/02/13 10:23:43;;;;;;;9.70;3.20;;;;;;;4.99;48.94;102064.73;106248;1291;73316;-79
2023/02/13 10:26:22;;;;;;;8.30;2.90;;;;;;;4.76;49.96;102065.95;105981;1291;58709;-79
2023/02/13 10:31:48;;;;;;;10.10;3.50;;;;;;;4.90;50.57;102054.71;106278;1291;72703;-79
2023/02/13 10:34:15;;;;;;;10.50;3.40;;;;;;;4.90;51.30;102053.33;106291;1290;73516;-79
2023/02/13 10:36:45;;;;;;;8.50;3.10;;;;;;;4.90;50.97;102053.08;106242;1290;72376;-80
2023/02/13 10:39:25;;;;;;;9.90;3.40;;;;;;;4.82;50.93;102047.09;106292;1290;60626;-79
2023/02/13 10:42:00;;;;;;;9.90;3.40;;;;;;;4.71;50.74;102045.07;106278;1291;60182;-79
2023/02/13 10:44:26;;;;;;;9.20;3.40;;;;;;;4.53;50.96;102044.90;106278;1290;74816;-79
2023/02/13 10:47:28;;;;;;;10.40;3.10;;;;;;;4.34;51.81;102044.05;106290;1291;58420;-80
2023/02/13 10:50:26;;;;;;;5.90;2.60;;;;;;;4.29;51.87;102042.05;106295;1291;73504;-78
2023/02/13 10:53:16;;;;;;;10.90;2.80;;;;;;;4.34;52.90;102040.73;106874;1286;59291;-78
2023/02/13 10:56:03;;;;;;;10.90;2.80;;;;;;;4.42;53.41;102040.48;106967;1285;61389;-78
2023/02/13 10:58:43;;;;;;;8.60;3.20;;;;;;;4.59;53.78;102034.98;106999;1286;73328;-77
2023/02/13 11:01:24;;;;;;;9.60;3.50;;;;;;;4.60;53.99;102032.37;107014;1285;74127;-77
2023/02/13 11:04:06;;;;;;;9.30;3.50;;;;;;;4.60;53.52;102033.27;106672;1285;74760;-78
2023/02/13 11:06:36;;;;;;;162.20;41.10;;;;;;;4.43;53.35;102030.99;106599;1285;59013;-78
2023/02/13 11:09:05;;;;;;;12.70;4.50;;;;;;;4.34;53.29;102029.59;106990;1286;60911;-77
2023/02/13 11:11:37;;;;;;;9.50;4.30;;;;;;;4.19;53.74;102022.51;106978;1286;75469;-77
2023/02/13 11:14:15;;;;;;;14.00;3.70;;;;;;;4.19;54.52;102012.73;107007;1284;72239;-78
2023/02/13 11:17:03;;;;;;;9.80;3.60;;;;;;;4.20;54.11;102001.95;106610;1285;72519;-78
2023/02/13 11:19:33;;;;;;;17.80;5.60;;;;;;;4.07;54.29;101993.08;106249;1290;59572;-78
2023/02/13 11:22:10;;;;;;;11.10;4.00;;;;;;;3.92;54.84;101988.86;106290;1290;59118;-78
2023/02/13 11:24:40;;;;;;;20.70;9.00;;;;;;;3.91;55.23;101983.88;106237;1291;73336;-78
2023/02/13 11:27:12;;;;;;;10.90;4.30;;;;;;;4.00;55.14;101982.23;106262;1292;74505;-77
2023/02/13 11:29:55;;;;;;;12.00;3.90;;;;;;;4.09;55.45;101977.17;106252;1291;73255;-77
2023/02/13 11:32:27;;;;;;;15.60;4.90;;;;;;;4.26;55.77;101970.23;106154;1292;60111;-78
2023/02/13 11:34:55;;;;;;;11.10;3.70;;;;;;;4.33;55.81;101972.88;106259;1292;60062;-78
2023/02/13 11:37:24;;;;;;;13.20;3.90;;;;;;;4.32;55.47;101972.38;106317;1290;75529;-78
2023/02/13 11:39:53;;;;;;;8.00;3.30;;;;;;;4.28;54.75;101970.84;106306;1290;74364;-78
2023/02/13 11:42:23;;;;;;;9.60;3.70;;;;;;;4.22;55.26;101969.11;106225;1290;74813;-78
2023/02/13 11:44:53;;;;;;;13.40;3.30;;;;;;;4.15;55.39;101967.09;106240;1293;59254;-78
2023/02/13 11:47:37;;;;;;;12.30;3.60;;;;;;;4.13;56.09;101967.30;106267;1290;59044;-78
2023/02/13 11:50:17;;;;;;;11.40;3.30;;;;;;;4.08;56.22;101959.69;106248;1292;74591;-78
2023/02/13 11:52:51;;;;;;;10.00;4.00;;;;;;;4.05;56.30;101958.15;106320;1290;73984;-78
2023/02/13 11:56:03;;;;;;;9.80;3.50;;;;;;;4.05;56.65;101952.95;106292;1291;72412;-78
2023/02/13 11:58:30;;;;;;;9.10;3.60;;;;;;;3.88;56.87;101950.16;106240;1291;60490;-78
2023/02/13 12:01:18;;;;;;;10.30;3.00;;;;;;;3.83;56.49;101948.36;106216;1291;60165;-78
2023/02/13 12:03:55;;;;;;;7.80;3.00;;;;;;;3.78;57.86;101943.84;105732;1297;75517;-78
2023/02/13 12:06:20;;;;;;;10.00;3.30;;;;;;;3.79;56.65;101945.18;105719;1297;73648;-78
2023/02/13 12:08:49;;;;;;;13.70;3.50;;;;;;;3.69;57.42;101938.08;105710;1297;59377;-78
2023/02/13 12:11:26;;;;;;;11.10;3.40;;;;;;;3.67;57.55;101931.37;105452;1297;60356;-78
2023/02/13 12:13:52;;;;;;;7.20;3.30;;;;;;;3.73;57.42;101921.45;105693;1297;59591;-78
2023/02/13 12:16:25;;;;;;;11.00;4.30;;;;;;;3.66;57.27;101915.52;105740;1297;59492;-78